sensor_id;sensor_type;location;lat;lon;timestamp;pressure;altitude;pressure_sealevel;temperature;humidity
83496;BME280;73431;40.794;43.836;2024-01-30T00:00:47;85105.13;;;-5.01;51.60
83496;BME280;73431;40.794;43.836;2024-01-30T00:03:14;85115.34;;;-4.75;50.89
83496;BME280;73431;40.794;43.836;2024-01-30T00:05:42;85103.59;;;-4.46;50.58
83496;BME280;73431;40.794;43.836;2024-01-30T00:08:11;85101.25;;;-4.29;50.12
83496;BME280;73431;40.794;43.836;2024-01-30T00:10:39;85099.97;;;-4.12;49.37
83496;BME280;73431;40.794;43.836;2024-01-30T00:13:07;85108.91;;;-3.99;48.92
83496;BME280;73431;40.794;43.836;2024-01-30T00:15:35;85096.44;;;-3.97;48.99
83496;BME280;73431;40.794;43.836;2024-01-30T00:18:03;85098.22;;;-4.01;48.69
83496;BME280;73431;40.794;43.836;2024-01-30T00:20:31;85101.56;;;-4.00;48.64
83496;BME280;73431;40.794;43.836;2024-01-30T00:22:58;85107.50;;;-3.93;48.50
83496;BME280;73431;40.794;43.836;2024-01-30T00:25:26;85090.22;;;-3.92;48.12
83496;BME280;73431;40.794;43.836;2024-01-30T00:27:53;85097.66;;;-3.87;47.77
83496;BME280;73431;40.794;43.836;2024-01-30T00:30:22;85080.03;;;-3.85;47.67
83496;BME280;73431;40.794;43.836;2024-01-30T00:32:50;85092.94;;;-3.78;47.32
83496;BME280;73431;40.794;43.836;2024-01-30T00:35:17;85095.88;;;-3.80;47.33
83496;BME280;73431;40.794;43.836;2024-01-30T00:37:45;85083.75;;;-3.79;47.51
83496;BME280;73431;40.794;43.836;2024-01-30T00:40:13;85087.06;;;-3.79;47.10
83496;BME280;73431;40.794;43.836;2024-01-30T00:42:44;85097.72;;;-3.80;46.87
83496;BME280;73431;40.794;43.836;2024-01-30T00:45:14;85089.56;;;-3.86;47.45
83496;BME280;73431;40.794;43.836;2024-01-30T00:47:42;85095.81;;;-3.87;47.13
83496;BME280;73431;40.794;43.836;2024-01-30T00:50:10;85074.94;;;-4.18;47.88
83496;BME280;73431;40.794;43.836;2024-01-30T00:52:37;85094.16;;;-4.05;47.35
83496;BME280;73431;40.794;43.836;2024-01-30T00:55:06;85095.16;;;-4.13;47.30
83496;BME280;73431;40.794;43.836;2024-01-30T00:57:34;85096.84;;;-4.28;48.17
83496;BME280;73431;40.794;43.836;2024-01-30T01:00:02;85094.00;;;-4.19;48.18
83496;BME280;73431;40.794;43.836;2024-01-30T01:02:30;85102.38;;;-4.26;47.55
83496;BME280;73431;40.794;43.836;2024-01-30T01:04:58;85102.63;;;-4.38;48.67
83496;BME280;73431;40.794;43.836;2024-01-30T01:07:26;85089.56;;;-4.22;48.59
83496;BME280;73431;40.794;43.836;2024-01-30T01:09:54;85098.69;;;-4.29;47.29
83496;BME280;73431;40.794;43.836;2024-01-30T01:12:21;85106.25;;;-4.39;48.18
83496;BME280;73431;40.794;43.836;2024-01-30T01:14:49;85096.06;;;-4.32;48.47
83496;BME280;73431;40.794;43.836;2024-01-30T01:17:17;85097.97;;;-4.25;48.73
83496;BME280;73431;40.794;43.836;2024-01-30T01:19:45;85102.47;;;-4.19;47.71
83496;BME280;73431;40.794;43.836;2024-01-30T01:22:13;85095.16;;;-4.13;48.22
83496;BME280;73431;40.794;43.836;2024-01-30T01:24:41;85102.56;;;-4.08;48.03
83496;BME280;73431;40.794;43.836;2024-01-30T01:27:09;85091.59;;;-4.02;48.03
83496;BME280;73431;40.794;43.836;2024-01-30T01:29:37;85102.38;;;-3.93;47.50
83496;BME280;73431;40.794;43.836;2024-01-30T01:32:05;85091.28;;;-4.00;47.44
83496;BME280;73431;40.794;43.836;2024-01-30T01:34:32;85096.22;;;-4.18;47.46
83496;BME280;73431;40.794;43.836;2024-01-30T01:37:00;85087.53;;;-4.40;47.23
83496;BME280;73431;40.794;43.836;2024-01-30T01:39:28;85104.31;;;-4.49;47.99
83496;BME280;73431;40.794;43.836;2024-01-30T01:41:55;85110.09;;;-4.56;49.24
83496;BME280;73431;40.794;43.836;2024-01-30T01:44:23;85114.53;;;-4.53;49.18
83496;BME280;73431;40.794;43.836;2024-01-30T01:46:51;85108.97;;;-4.29;49.02
83496;BME280;73431;40.794;43.836;2024-01-30T01:49:20;85094.09;;;-4.12;48.73
83496;BME280;73431;40.794;43.836;2024-01-30T01:51:48;85105.34;;;-3.87;48.11
83496;BME280;73431;40.794;43.836;2024-01-30T01:54:16;85107.69;;;-3.75;48.39
83496;BME280;73431;40.794;43.836;2024-01-30T01:56:45;85104.13;;;-3.60;48.68
83496;BME280;73431;40.794;43.836;2024-01-30T01:59:13;85109.00;;;-3.51;47.55
83496;BME280;73431;40.794;43.836;2024-01-30T02:01:40;85109.72;;;-3.51;47.52
83496;BME280;73431;40.794;43.836;2024-01-30T02:04:09;85089.34;;;-3.70;47.52
83496;BME280;73431;40.794;43.836;2024-01-30T02:06:37;85107.47;;;-3.56;46.83
83496;BME280;73431;40.794;43.836;2024-01-30T02:09:06;85114.03;;;-3.62;47.73
83496;BME280;73431;40.794;43.836;2024-01-30T02:11:34;85106.25;;;-3.69;47.62
83496;BME280;73431;40.794;43.836;2024-01-30T02:14:05;85111.41;;;-3.69;47.83
83496;BME280;73431;40.794;43.836;2024-01-30T02:16:33;85113.25;;;-3.66;47.25
83496;BME280;73431;40.794;43.836;2024-01-30T02:19:01;85120.22;;;-3.66;46.73
83496;BME280;73431;40.794;43.836;2024-01-30T02:21:33;85119.53;;;-3.63;47.03
83496;BME280;73431;40.794;43.836;2024-01-30T02:24:01;85128.34;;;-3.64;46.93
83496;BME280;73431;40.794;43.836;2024-01-30T02:26:30;85115.84;;;-3.66;47.08
83496;BME280;73431;40.794;43.836;2024-01-30T02:28:58;85122.34;;;-3.76;46.66
83496;BME280;73431;40.794;43.836;2024-01-30T02:31:25;85119.78;;;-3.76;46.43
83496;BME280;73431;40.794;43.836;2024-01-30T02:33:54;85133.75;;;-3.77;46.94
83496;BME280;73431;40.794;43.836;2024-01-30T02:36:21;85125.28;;;-3.77;46.47
83496;BME280;73431;40.794;43.836;2024-01-30T02:38:49;85137.38;;;-3.81;46.39
83496;BME280;73431;40.794;43.836;2024-01-30T02:41:17;85134.06;;;-3.82;45.89
83496;BME280;73431;40.794;43.836;2024-01-30T02:43:44;85103.75;;;-3.99;46.52
83496;BME280;73431;40.794;43.836;2024-01-30T02:46:12;85134.06;;;-3.82;46.09
83496;BME280;73431;40.794;43.836;2024-01-30T02:48:39;85135.50;;;-3.84;46.58
83496;BME280;73431;40.794;43.836;2024-01-30T02:51:08;85136.28;;;-3.80;46.42
83496;BME280;73431;40.794;43.836;2024-01-30T02:53:36;85148.00;;;-3.83;46.84
83496;BME280;73431;40.794;43.836;2024-01-30T02:56:04;85138.03;;;-3.88;46.73
83496;BME280;73431;40.794;43.836;2024-01-30T02:58:33;85143.53;;;-3.89;46.33
83496;BME280;73431;40.794;43.836;2024-01-30T03:01:01;85138.03;;;-3.88;47.04
83496;BME280;73431;40.794;43.836;2024-01-30T03:03:29;85138.53;;;-4.08;47.04
83496;BME280;73431;40.794;43.836;2024-01-30T03:05:56;85138.81;;;-4.17;47.84
83496;BME280;73431;40.794;43.836;2024-01-30T03:08:24;85146.22;;;-4.12;48.04
83496;BME280;73431;40.794;43.836;2024-01-30T03:10:52;85147.75;;;-4.07;48.04
83496;BME280;73431;40.794;43.836;2024-01-30T03:13:21;85141.47;;;-4.10;47.63
83496;BME280;73431;40.794;43.836;2024-01-30T03:15:50;85143.25;;;-4.14;47.66
83496;BME280;73431;40.794;43.836;2024-01-30T03:18:19;85152.38;;;-4.50;48.03
83496;BME280;73431;40.794;43.836;2024-01-30T03:20:47;85072.00;;;-5.10;48.68
83496;BME280;73431;40.794;43.836;2024-01-30T03:23:15;85142.44;;;-4.51;48.52
83496;BME280;73431;40.794;43.836;2024-01-30T03:25:43;85153.53;;;-4.73;48.30
83496;BME280;73431;40.794;43.836;2024-01-30T03:28:10;85157.66;;;-4.95;49.42
83496;BME280;73431;40.794;43.836;2024-01-30T03:30:38;85159.91;;;-4.90;49.75
83496;BME280;73431;40.794;43.836;2024-01-30T03:33:05;85156.91;;;-4.69;49.01
83496;BME280;73431;40.794;43.836;2024-01-30T03:35:33;85161.81;;;-4.57;48.94
83496;BME280;73431;40.794;43.836;2024-01-30T03:38:01;85155.16;;;-4.62;48.76
83496;BME280;73431;40.794;43.836;2024-01-30T03:40:29;85150.81;;;-4.84;49.29
83496;BME280;73431;40.794;43.836;2024-01-30T03:42:57;85164.97;;;-4.94;49.21
83496;BME280;73431;40.794;43.836;2024-01-30T03:45:25;85171.22;;;-4.95;49.74
83496;BME280;73431;40.794;43.836;2024-01-30T03:47:53;85170.91;;;-4.90;49.73
83496;BME280;73431;40.794;43.836;2024-01-30T03:50:20;85166.66;;;-4.78;49.28
83496;BME280;73431;40.794;43.836;2024-01-30T03:52:48;85173.19;;;-4.85;49.06
83496;BME280;73431;40.794;43.836;2024-01-30T03:55:16;85171.72;;;-4.86;49.46
83496;BME280;73431;40.794;43.836;2024-01-30T03:57:44;85159.69;;;-4.78;49.11
83496;BME280;73431;40.794;43.836;2024-01-30T04:00:12;85161.28;;;-4.70;48.57
83496;BME280;73431;40.794;43.836;2024-01-30T04:02:41;85168.91;;;-4.77;48.78
83496;BME280;73431;40.794;43.836;2024-01-30T04:05:09;85178.06;;;-5.02;48.40
83496;BME280;73431;40.794;43.836;2024-01-30T04:07:37;85171.72;;;-5.35;48.77
83496;BME280;73431;40.794;43.836;2024-01-30T04:10:05;85171.31;;;-5.59;49.76
83496;BME280;73431;40.794;43.836;2024-01-30T04:12:33;85173.56;;;-5.77;50.74
83496;BME280;73431;40.794;43.836;2024-01-30T04:15:01;85170.75;;;-5.95;51.08
83496;BME280;73431;40.794;43.836;2024-01-30T04:17:29;85182.75;;;-5.99;51.89
83496;BME280;73431;40.794;43.836;2024-01-30T04:19:57;85181.50;;;-5.85;52.23
83496;BME280;73431;40.794;43.836;2024-01-30T04:22:25;85182.59;;;-5.64;51.78
83496;BME280;73431;40.794;43.836;2024-01-30T04:24:53;85184.34;;;-5.45;51.42
83496;BME280;73431;40.794;43.836;2024-01-30T04:27:21;85194.50;;;-5.29;51.03
83496;BME280;73431;40.794;43.836;2024-01-30T04:29:49;85185.53;;;-5.16;50.77
83496;BME280;73431;40.794;43.836;2024-01-30T04:32:17;85175.44;;;-5.06;49.91
83496;BME280;73431;40.794;43.836;2024-01-30T04:34:45;85186.91;;;-5.22;50.27
83496;BME280;73431;40.794;43.836;2024-01-30T04:37:13;85192.56;;;-5.13;50.80
83496;BME280;73431;40.794;43.836;2024-01-30T04:39:41;85194.34;;;-4.91;50.09
83496;BME280;73431;40.794;43.836;2024-01-30T04:42:09;85189.44;;;-4.77;49.98
83496;BME280;73431;40.794;43.836;2024-01-30T04:44:37;85184.88;;;-4.61;49.65
83496;BME280;73431;40.794;43.836;2024-01-30T04:47:04;85183.94;;;-4.49;49.19
83496;BME280;73431;40.794;43.836;2024-01-30T04:49:35;85189.97;;;-4.38;49.06
83496;BME280;73431;40.794;43.836;2024-01-30T04:52:03;85195.03;;;-4.15;48.54
83496;BME280;73431;40.794;43.836;2024-01-30T04:54:31;85194.09;;;-4.00;47.92
83496;BME280;73431;40.794;43.836;2024-01-30T04:56:59;85201.19;;;-3.90;47.33
83496;BME280;73431;40.794;43.836;2024-01-30T04:59:27;85198.72;;;-3.83;47.12
83496;BME280;73431;40.794;43.836;2024-01-30T05:01:55;85209.72;;;-3.83;47.73
83496;BME280;73431;40.794;43.836;2024-01-30T05:04:23;85205.22;;;-3.89;47.68
83496;BME280;73431;40.794;43.836;2024-01-30T05:06:52;85207.13;;;-3.83;47.81
83496;BME280;73431;40.794;43.836;2024-01-30T05:09:19;85208.44;;;-3.66;47.21
83496;BME280;73431;40.794;43.836;2024-01-30T05:11:47;85197.13;;;-3.58;46.93
83496;BME280;73431;40.794;43.836;2024-01-30T05:14:15;85204.94;;;-3.47;46.92
83496;BME280;73431;40.794;43.836;2024-01-30T05:16:44;85210.53;;;-3.38;46.42
83496;BME280;73431;40.794;43.836;2024-01-30T05:19:14;85211.38;;;-3.31;46.70
83496;BME280;73431;40.794;43.836;2024-01-30T05:21:42;85209.56;;;-3.27;46.28
83496;BME280;73431;40.794;43.836;2024-01-30T05:24:10;85146.31;;;-3.68;46.49
83496;BME280;73431;40.794;43.836;2024-01-30T05:26:37;85198.34;;;-3.08;46.65
83496;BME280;73431;40.794;43.836;2024-01-30T05:29:06;85206.22;;;-2.87;47.07
83496;BME280;73431;40.794;43.836;2024-01-30T05:31:34;85215.91;;;-2.73;45.86
83496;BME280;73431;40.794;43.836;2024-01-30T05:34:02;85214.13;;;-2.69;45.03
83496;BME280;73431;40.794;43.836;2024-01-30T05:36:30;85221.84;;;-2.69;45.12
83496;BME280;73431;40.794;43.836;2024-01-30T05:38:58;85223.88;;;-3.29;44.76
83496;BME280;73431;40.794;43.836;2024-01-30T05:41:26;85225.31;;;-3.35;44.45
83496;BME280;73431;40.794;43.836;2024-01-30T05:43:54;85196.38;;;-3.58;45.69
83496;BME280;73431;40.794;43.836;2024-01-30T05:46:22;85231.13;;;-3.42;45.79
83496;BME280;73431;40.794;43.836;2024-01-30T05:48:51;85235.16;;;-3.41;45.68
83496;BME280;73431;40.794;43.836;2024-01-30T05:51:19;85224.44;;;-3.46;45.56
83496;BME280;73431;40.794;43.836;2024-01-30T05:53:47;85232.75;;;-3.60;45.22
83496;BME280;73431;40.794;43.836;2024-01-30T05:56:15;85226.75;;;-3.71;45.84
83496;BME280;73431;40.794;43.836;2024-01-30T05:58:43;85238.50;;;-3.70;46.91
83496;BME280;73431;40.794;43.836;2024-01-30T06:01:11;85233.84;;;-3.61;46.75
83496;BME280;73431;40.794;43.836;2024-01-30T06:03:39;85226.56;;;-3.55;46.54
83496;BME280;73431;40.794;43.836;2024-01-30T06:06:07;85230.34;;;-3.46;47.46
83496;BME280;73431;40.794;43.836;2024-01-30T06:08:34;85229.50;;;-3.20;47.39
83496;BME280;73431;40.794;43.836;2024-01-30T06:11:02;85222.44;;;-2.86;46.99
83496;BME280;73431;40.794;43.836;2024-01-30T06:13:30;85225.19;;;-2.61;46.65
83496;BME280;73431;40.794;43.836;2024-01-30T06:15:59;85227.03;;;-2.65;45.12
83496;BME280;73431;40.794;43.836;2024-01-30T06:18:27;85223.47;;;-2.94;44.82
83496;BME280;73431;40.794;43.836;2024-01-30T06:20:58;85229.63;;;-3.02;45.35
83496;BME280;73431;40.794;43.836;2024-01-30T06:23:26;85223.38;;;-3.05;46.18
83496;BME280;73431;40.794;43.836;2024-01-30T06:25:54;85232.28;;;-2.95;46.26
83496;BME280;73431;40.794;43.836;2024-01-30T06:28:21;85231.63;;;-2.85;46.39
83496;BME280;73431;40.794;43.836;2024-01-30T06:30:49;85231.75;;;-2.75;45.84
83496;BME280;73431;40.794;43.836;2024-01-30T06:33:18;85233.66;;;-2.61;46.63
83496;BME280;73431;40.794;43.836;2024-01-30T06:35:46;85228.78;;;-2.22;47.31
83496;BME280;73431;40.794;43.836;2024-01-30T06:38:14;85232.31;;;-1.86;45.72
83496;BME280;73431;40.794;43.836;2024-01-30T06:40:42;85241.63;;;-1.64;46.16
83496;BME280;73431;40.794;43.836;2024-01-30T06:43:10;85237.25;;;-1.53;44.23
83496;BME280;73431;40.794;43.836;2024-01-30T06:45:38;85233.13;;;-1.68;44.50
83496;BME280;73431;40.794;43.836;2024-01-30T06:48:08;85230.50;;;-1.82;46.10
83496;BME280;73431;40.794;43.836;2024-01-30T06:50:36;85225.31;;;-1.86;44.92
83496;BME280;73431;40.794;43.836;2024-01-30T06:53:04;85233.75;;;-1.96;44.71
83496;BME280;73431;40.794;43.836;2024-01-30T06:55:31;85240.41;;;-1.88;44.92
83496;BME280;73431;40.794;43.836;2024-01-30T06:57:59;85230.84;;;-1.84;45.57
83496;BME280;73431;40.794;43.836;2024-01-30T07:00:26;85239.06;;;-1.61;45.53
83496;BME280;73431;40.794;43.836;2024-01-30T07:02:54;85233.25;;;-1.40;45.12
83496;BME280;73431;40.794;43.836;2024-01-30T07:05:21;85231.41;;;-1.39;44.68
83496;BME280;73431;40.794;43.836;2024-01-30T07:07:49;85239.91;;;-1.35;45.14
83496;BME280;73431;40.794;43.836;2024-01-30T07:10:17;85230.63;;;-1.54;44.68
83496;BME280;73431;40.794;43.836;2024-01-30T07:12:45;85236.94;;;-1.44;44.29
83496;BME280;73431;40.794;43.836;2024-01-30T07:15:13;85230.31;;;-1.38;43.90
83496;BME280;73431;40.794;43.836;2024-01-30T07:17:44;85239.84;;;-1.53;44.78
83496;BME280;73431;40.794;43.836;2024-01-30T07:20:12;85232.84;;;-1.49;44.73
83496;BME280;73431;40.794;43.836;2024-01-30T07:22:44;85227.00;;;-1.35;44.44
83496;BME280;73431;40.794;43.836;2024-01-30T07:25:12;85238.09;;;-1.21;44.46
83496;BME280;73431;40.794;43.836;2024-01-30T07:27:40;85242.50;;;-1.32;43.98
83496;BME280;73431;40.794;43.836;2024-01-30T07:30:08;85242.91;;;-1.23;44.18
83496;BME280;73431;40.794;43.836;2024-01-30T07:32:36;85238.50;;;-1.12;44.49
83496;BME280;73431;40.794;43.836;2024-01-30T07:35:04;85233.75;;;-1.06;44.04
83496;BME280;73431;40.794;43.836;2024-01-30T07:37:35;85209.59;;;-1.63;42.22
83496;BME280;73431;40.794;43.836;2024-01-30T07:40:04;85236.66;;;-1.97;42.57
83496;BME280;73431;40.794;43.836;2024-01-30T07:42:33;85214.72;;;-2.35;45.19
83496;BME280;73431;40.794;43.836;2024-01-30T07:45:01;85246.31;;;-1.87;45.16
83496;BME280;73431;40.794;43.836;2024-01-30T07:47:29;85240.91;;;-1.61;45.38
83496;BME280;73431;40.794;43.836;2024-01-30T07:49:57;85244.34;;;-1.32;44.67
83496;BME280;73431;40.794;43.836;2024-01-30T07:52:24;85238.50;;;-1.12;43.91
83496;BME280;73431;40.794;43.836;2024-01-30T07:54:52;85240.03;;;-1.00;43.93
83496;BME280;73431;40.794;43.836;2024-01-30T07:57:21;85244.41;;;-1.11;42.61
83496;BME280;73431;40.794;43.836;2024-01-30T07:59:49;85236.31;;;-1.10;44.36
83496;BME280;73431;40.794;43.836;2024-01-30T08:02:16;85233.38;;;-1.01;43.99
83496;BME280;73431;40.794;43.836;2024-01-30T08:04:44;85241.53;;;-0.88;44.52
83496;BME280;73431;40.794;43.836;2024-01-30T08:07:17;85235.63;;;-0.78;43.91
83496;BME280;73431;40.794;43.836;2024-01-30T08:09:45;85233.38;;;-0.97;42.50
83496;BME280;73431;40.794;43.836;2024-01-30T08:12:13;85239.94;;;-1.32;42.66
83496;BME280;73431;40.794;43.836;2024-01-30T08:14:41;85240.25;;;-1.44;41.77
83496;BME280;73431;40.794;43.836;2024-01-30T08:17:08;85239.75;;;-1.74;44.13
83496;BME280;73431;40.794;43.836;2024-01-30T08:19:36;85237.03;;;-1.99;43.96
83496;BME280;73431;40.794;43.836;2024-01-30T08:22:04;85231.94;;;-1.88;44.88
83496;BME280;73431;40.794;43.836;2024-01-30T08:24:31;85238.97;;;-1.85;43.45
83496;BME280;73431;40.794;43.836;2024-01-30T08:26:59;85240.50;;;-1.74;44.54
83496;BME280;73431;40.794;43.836;2024-01-30T08:29:28;85229.59;;;-1.35;44.63
83496;BME280;73431;40.794;43.836;2024-01-30T08:31:56;85230.47;;;-0.82;44.68
83496;BME280;73431;40.794;43.836;2024-01-30T08:34:24;85219.06;;;-0.49;43.70
83496;BME280;73431;40.794;43.836;2024-01-30T08:36:52;85209.44;;;-0.24;42.54
83496;BME280;73431;40.794;43.836;2024-01-30T08:39:20;85223.44;;;0.14;43.31
83496;BME280;73431;40.794;43.836;2024-01-30T08:41:48;85206.38;;;0.41;41.95
83496;BME280;73431;40.794;43.836;2024-01-30T08:44:16;85200.72;;;0.68;41.69
83496;BME280;73431;40.794;43.836;2024-01-30T08:46:45;85205.84;;;0.85;41.93
83496;BME280;73431;40.794;43.836;2024-01-30T08:49:13;85198.00;;;0.96;41.68
83496;BME280;73431;40.794;43.836;2024-01-30T08:51:41;85193.06;;;1.26;41.69
83496;BME280;73431;40.794;43.836;2024-01-30T08:54:08;85195.50;;;1.51;40.95
83496;BME280;73431;40.794;43.836;2024-01-30T08:56:36;85192.38;;;1.74;41.14
83496;BME280;73431;40.794;43.836;2024-01-30T08:59:04;85189.94;;;2.00;40.05
83496;BME280;73431;40.794;43.836;2024-01-30T09:01:31;85183.53;;;2.12;39.77
83496;BME280;73431;40.794;43.836;2024-01-30T09:04:00;85184.97;;;2.17;37.81
83496;BME280;73431;40.794;43.836;2024-01-30T09:06:28;85188.25;;;2.21;38.01
83496;BME280;73431;40.794;43.836;2024-01-30T09:08:56;85182.94;;;2.35;40.44
83496;BME280;73431;40.794;43.836;2024-01-30T09:11:25;85176.63;;;2.73;40.74
83496;BME280;73431;40.794;43.836;2024-01-30T09:13:53;85178.78;;;2.78;39.82
83496;BME280;73431;40.794;43.836;2024-01-30T09:16:21;85170.97;;;2.78;39.21
83496;BME280;73431;40.794;43.836;2024-01-30T09:18:49;85174.28;;;2.82;39.73
83496;BME280;73431;40.794;43.836;2024-01-30T09:21:31;85172.31;;;2.93;40.46
83496;BME280;73431;40.794;43.836;2024-01-30T09:24:02;85171.03;;;3.05;40.00
83496;BME280;73431;40.794;43.836;2024-01-30T09:26:33;85167.78;;;3.28;40.16
83496;BME280;73431;40.794;43.836;2024-01-30T09:29:01;85167.44;;;3.52;37.27
83496;BME280;73431;40.794;43.836;2024-01-30T09:31:28;85173.72;;;3.55;40.12
83496;BME280;73431;40.794;43.836;2024-01-30T09:33:56;85165.47;;;3.87;40.20
83496;BME280;73431;40.794;43.836;2024-01-30T09:36:25;85174.41;;;4.32;40.29
83496;BME280;73431;40.794;43.836;2024-01-30T09:38:53;85172.25;;;4.50;36.39
83496;BME280;73431;40.794;43.836;2024-01-30T09:41:24;85163.09;;;4.19;39.70
83496;BME280;73431;40.794;43.836;2024-01-30T09:43:53;85169.31;;;4.25;39.22
83496;BME280;73431;40.794;43.836;2024-01-30T09:46:23;85183.31;;;4.11;38.91
83496;BME280;73431;40.794;43.836;2024-01-30T09:48:55;85177.31;;;4.14;39.86
83496;BME280;73431;40.794;43.836;2024-01-30T09:51:26;85167.56;;;4.18;40.13
83496;BME280;73431;40.794;43.836;2024-01-30T09:53:55;85171.47;;;4.30;40.11
83496;BME280;73431;40.794;43.836;2024-01-30T09:56:23;85174.47;;;4.52;39.99
83496;BME280;73431;40.794;43.836;2024-01-30T09:58:51;85164.13;;;4.68;39.92
83496;BME280;73431;40.794;43.836;2024-01-30T10:01:18;85167.00;;;4.73;39.31
83496;BME280;73431;40.794;43.836;2024-01-30T10:03:50;85173.03;;;4.70;38.69
83496;BME280;73431;40.794;43.836;2024-01-30T10:06:20;85165.09;;;4.54;39.80
83496;BME280;73431;40.794;43.836;2024-01-30T10:08:51;85170.44;;;4.47;39.03
83496;BME280;73431;40.794;43.836;2024-01-30T10:11:18;85169.38;;;4.45;39.40
83496;BME280;73431;40.794;43.836;2024-01-30T10:13:46;85161.59;;;4.64;38.53
83496;BME280;73431;40.794;43.836;2024-01-30T10:16:14;85157.16;;;4.61;37.82
83496;BME280;73431;40.794;43.836;2024-01-30T10:18:44;85172.53;;;4.56;38.00
83496;BME280;73431;40.794;43.836;2024-01-30T10:21:13;85169.03;;;4.43;39.87
83496;BME280;73431;40.794;43.836;2024-01-30T10:23:43;85170.50;;;4.44;39.37
83496;BME280;73431;40.794;43.836;2024-01-30T10:26:11;85161.72;;;4.34;39.01
83496;BME280;73431;40.794;43.836;2024-01-30T10:28:40;85157.31;;;4.31;38.42
83496;BME280;73431;40.794;43.836;2024-01-30T10:31:07;85166.13;;;4.37;39.22
83496;BME280;73431;40.794;43.836;2024-01-30T10:33:36;85144.63;;;4.33;40.15
83496;BME280;73431;40.794;43.836;2024-01-30T10:36:04;85163.16;;;4.15;40.02
83496;BME280;73431;40.794;43.836;2024-01-30T10:38:33;85169.72;;;4.00;40.48
83496;BME280;73431;40.794;43.836;2024-01-30T10:41:01;85175.66;;;4.01;40.90
83496;BME280;73431;40.794;43.836;2024-01-30T10:43:35;85163.53;;;3.91;38.55
83496;BME280;73431;40.794;43.836;2024-01-30T10:46:13;85167.22;;;3.70;40.13
83496;BME280;73431;40.794;43.836;2024-01-30T10:48:57;85182.59;;;3.57;38.93
83496;BME280;73431;40.794;43.836;2024-01-30T10:51:31;85170.84;;;3.49;41.41
83496;BME280;73431;40.794;43.836;2024-01-30T10:54:00;85170.38;;;3.54;39.52
83496;BME280;73431;40.794;43.836;2024-01-30T10:56:29;85160.81;;;3.48;41.17
83496;BME280;73431;40.794;43.836;2024-01-30T10:58:59;85164.97;;;3.42;40.50
83496;BME280;73431;40.794;43.836;2024-01-30T11:01:27;85140.97;;;3.04;41.03
83496;BME280;73431;40.794;43.836;2024-01-30T11:03:57;85173.53;;;3.15;41.04
83496;BME280;73431;40.794;43.836;2024-01-30T11:06:25;85156.56;;;3.04;41.43
83496;BME280;73431;40.794;43.836;2024-01-30T11:09:04;85170.38;;;2.97;39.30
83496;BME280;73431;40.794;43.836;2024-01-30T11:11:51;85168.16;;;2.65;39.80
83496;BME280;73431;40.794;43.836;2024-01-30T11:14:45;85171.97;;;2.57;40.21
83496;BME280;73431;40.794;43.836;2024-01-30T11:17:13;85162.66;;;2.60;40.44
83496;BME280;73431;40.794;43.836;2024-01-30T11:19:41;85166.69;;;2.64;40.73
83496;BME280;73431;40.794;43.836;2024-01-30T11:22:10;85184.19;;;2.60;40.81
83496;BME280;73431;40.794;43.836;2024-01-30T11:24:40;85169.66;;;2.63;40.82
83496;BME280;73431;40.794;43.836;2024-01-30T11:27:11;85164.53;;;2.56;40.09
83496;BME280;73431;40.794;43.836;2024-01-30T11:29:40;85179.72;;;2.61;40.84
83496;BME280;73431;40.794;43.836;2024-01-30T11:32:08;85172.59;;;2.65;40.49
83496;BME280;73431;40.794;43.836;2024-01-30T11:34:40;85177.81;;;2.65;40.15
83496;BME280;73431;40.794;43.836;2024-01-30T11:37:10;85180.50;;;2.58;41.20
83496;BME280;73431;40.794;43.836;2024-01-30T11:39:40;85173.78;;;2.60;41.05
83496;BME280;73431;40.794;43.836;2024-01-30T11:42:10;85187.16;;;2.59;40.95
83496;BME280;73431;40.794;43.836;2024-01-30T11:44:39;85180.50;;;2.58;41.09
83496;BME280;73431;40.794;43.836;2024-01-30T11:47:06;85176.78;;;2.55;40.77
83496;BME280;73431;40.794;43.836;2024-01-30T11:49:34;85170.13;;;2.54;39.77
83496;BME280;73431;40.794;43.836;2024-01-30T11:52:02;85179.75;;;2.57;40.70
83496;BME280;73431;40.794;43.836;2024-01-30T11:54:30;85172.34;;;2.56;40.16
83496;BME280;73431;40.794;43.836;2024-01-30T11:56:58;85166.41;;;2.55;40.32
83496;BME280;73431;40.794;43.836;2024-01-30T11:59:26;85178.31;;;2.53;40.81
83496;BME280;73431;40.794;43.836;2024-01-30T12:01:54;85174.28;;;2.48;41.06
83496;BME280;73431;40.794;43.836;2024-01-30T12:04:21;85168.34;;;2.48;40.81
83496;BME280;73431;40.794;43.836;2024-01-30T12:06:52;85183.53;;;2.49;40.85
83496;BME280;73431;40.794;43.836;2024-01-30T12:09:21;85174.72;;;2.02;39.73
83496;BME280;73431;40.794;43.836;2024-01-30T12:11:49;85186.13;;;1.64;40.72
83496;BME280;73431;40.794;43.836;2024-01-30T12:14:18;85188.09;;;1.49;41.66
83496;BME280;73431;40.794;43.836;2024-01-30T12:16:50;85192.59;;;1.42;42.03
83496;BME280;73431;40.794;43.836;2024-01-30T12:19:25;85192.03;;;1.10;40.41
83496;BME280;73431;40.794;43.836;2024-01-30T12:21:57;85196.63;;;0.81;41.93
83496;BME280;73431;40.794;43.836;2024-01-30T12:24:28;85194.47;;;0.65;41.88
83496;BME280;73431;40.794;43.836;2024-01-30T12:26:59;85203.38;;;0.53;42.27
83496;BME280;73431;40.794;43.836;2024-01-30T12:29:27;85208.22;;;0.44;42.35
83496;BME280;73431;40.794;43.836;2024-01-30T12:32:04;85203.44;;;0.36;42.79
83496;BME280;73431;40.794;43.836;2024-01-30T12:34:33;85216.75;;;0.31;42.60
83496;BME280;73431;40.794;43.836;2024-01-30T12:37:15;85212.69;;;0.19;42.07
83496;BME280;73431;40.794;43.836;2024-01-30T12:39:49;85213.84;;;0.15;42.98
83496;BME280;73431;40.794;43.836;2024-01-30T12:42:18;85197.56;;;0.18;43.92
83496;BME280;73431;40.794;43.836;2024-01-30T12:44:48;85208.25;;;0.27;42.58
83496;BME280;73431;40.794;43.836;2024-01-30T12:47:16;85211.59;;;0.17;43.42
83496;BME280;73431;40.794;43.836;2024-01-30T12:49:45;85217.88;;;0.19;44.12
83496;BME280;73431;40.794;43.836;2024-01-30T12:52:16;85214.16;;;0.34;44.11
83496;BME280;73431;40.794;43.836;2024-01-30T12:54:44;85217.44;;;0.56;43.37
83496;BME280;73431;40.794;43.836;2024-01-30T12:57:12;85218.94;;;0.46;43.36
83496;BME280;73431;40.794;43.836;2024-01-30T12:59:40;85225.22;;;0.42;43.25